Powell, Missouri
Current Conditions -  °F | °C
As of 9:57 AM on Friday 24 Oct 2014 (Local Time) from KROG Reporting Station
Clear Clear  
Wind Chill: 63°   Ceiling: Unl
Heat Index: 63°   Visibility: 10mi
Dew Point: 55°   Wind: 7mph
Humidity: 75%   Direction: 210°SSW
Pressure: 30.16"   Gusts: NA
Location:  36.62°N, 94.18°W
Report Text: KROG 241457Z 21006KT 10SM CLR 17/13 A3016 RMK AO2 SLP209 T01720128 51007
Loading
Personal Weather Stations






























Interactive Weather Map
Tropical Storm Tracking
New forecast layout! Learn more

10-Day Weather Forecast

Advertisements
Track Severe Weather on mobile